sensor_id;sensor_type;location;lat;lon;timestamp;pressure;altitude;pressure_sealevel;temperature;humidity
43824;BME280;29470;53.550;9.926;2023-02-20T00:00:33;101635.00;;;8.18;79.43
43824;BME280;29470;53.550;9.926;2023-02-20T00:05:37;101628.09;;;8.36;78.64
43824;BME280;29470;53.550;9.926;2023-02-20T00:10:40;101615.16;;;7.61;81.68
43824;BME280;29470;53.550;9.926;2023-02-20T00:15:44;101605.44;;;7.95;81.48
43824;BME280;29470;53.550;9.926;2023-02-20T00:20:47;101587.16;;;8.39;79.06
43824;BME280;29470;53.550;9.926;2023-02-20T00:25:49;101563.41;;;8.05;80.42
43824;BME280;29470;53.550;9.926;2023-02-20T00:30:54;101550.91;;;8.19;80.24
43824;BME280;29470;53.550;9.926;2023-02-20T00:35:57;101538.50;;;8.15;80.96
43824;BME280;29470;53.550;9.926;2023-02-20T00:40:59;101511.75;;;8.23;79.88
43824;BME280;29470;53.550;9.926;2023-02-20T00:46:04;101518.78;;;7.96;81.44
43824;BME280;29470;53.550;9.926;2023-02-20T00:51:07;101489.19;;;7.82;83.71
43824;BME280;29470;53.550;9.926;2023-02-20T00:56:09;101467.66;;;8.58;79.00
43824;BME280;29470;53.550;9.926;2023-02-20T01:01:15;101468.56;;;8.20;80.64
43824;BME280;29470;53.550;9.926;2023-02-20T01:06:18;101470.16;;;8.48;79.26
43824;BME280;29470;53.550;9.926;2023-02-20T01:11:21;101471.69;;;8.26;80.93
43824;BME280;29470;53.550;9.926;2023-02-20T01:16:27;101472.75;;;8.09;82.20
43824;BME280;29470;53.550;9.926;2023-02-20T01:21:30;101461.97;;;8.14;82.16
43824;BME280;29470;53.550;9.926;2023-02-20T01:26:34;101455.28;;;8.54;80.75
43824;BME280;29470;53.550;9.926;2023-02-20T01:31:39;101441.38;;;7.94;81.74
43824;BME280;29470;53.550;9.926;2023-02-20T01:36:46;101444.28;;;8.76;79.37
43824;BME280;29470;53.550;9.926;2023-02-20T01:41:52;101433.31;;;8.30;80.55
43824;BME280;29470;53.550;9.926;2023-02-20T01:46:57;101420.06;;;8.54;80.42
43824;BME280;29470;53.550;9.926;2023-02-20T01:52:07;101406.56;;;8.57;79.97
43824;BME280;29470;53.550;9.926;2023-02-20T01:57:15;101386.72;;;8.66;79.57
43824;BME280;29470;53.550;9.926;2023-02-20T02:02:20;101377.22;;;8.76;79.13
43824;BME280;29470;53.550;9.926;2023-02-20T02:07:25;101355.88;;;8.58;80.42
43824;BME280;29470;53.550;9.926;2023-02-20T02:12:28;101335.69;;;8.43;79.54
43824;BME280;29470;53.550;9.926;2023-02-20T02:23:50;101329.81;;;8.54;80.33
43824;BME280;29470;53.550;9.926;2023-02-20T02:29:13;101325.84;;;8.58;80.62
43824;BME280;29470;53.550;9.926;2023-02-20T02:35:01;101327.41;;;8.87;80.14
43824;BME280;29470;53.550;9.926;2023-02-20T02:40:13;101337.13;;;9.00;78.11
43824;BME280;29470;53.550;9.926;2023-02-20T02:45:27;101329.88;;;8.75;81.35
43824;BME280;29470;53.550;9.926;2023-02-20T02:50:34;101323.03;;;8.96;80.20
43824;BME280;29470;53.550;9.926;2023-02-20T02:55:41;101296.72;;;9.32;79.77
43824;BME280;29470;53.550;9.926;2023-02-20T03:00:47;101290.03;;;9.23;80.05
43824;BME280;29470;53.550;9.926;2023-02-20T03:05:53;101291.31;;;9.28;79.89
43824;BME280;29470;53.550;9.926;2023-02-20T03:11:03;101295.44;;;9.37;80.08
43824;BME280;29470;53.550;9.926;2023-02-20T03:16:07;101287.19;;;8.99;81.23
43824;BME280;29470;53.550;9.926;2023-02-20T03:21:14;101266.81;;;9.03;80.83
43824;BME280;29470;53.550;9.926;2023-02-20T03:26:26;101282.03;;;8.89;83.31
43824;BME280;29470;53.550;9.926;2023-02-20T03:31:33;101273.91;;;9.79;79.31
43824;BME280;29470;53.550;9.926;2023-02-20T03:36:41;101272.22;;;8.95;82.38
43824;BME280;29470;53.550;9.926;2023-02-20T03:42:08;101260.09;;;8.84;83.59
43824;BME280;29470;53.550;9.926;2023-02-20T03:47:41;101234.53;;;9.08;81.80
43824;BME280;29470;53.550;9.926;2023-02-20T03:52:48;101247.72;;;8.90;83.55
43824;BME280;29470;53.550;9.926;2023-02-20T03:57:55;101261.53;;;9.11;82.14
43824;BME280;29470;53.550;9.926;2023-02-20T04:03:07;101261.91;;;8.95;81.67
43824;BME280;29470;53.550;9.926;2023-02-20T04:08:19;101253.38;;;9.17;80.69
43824;BME280;29470;53.550;9.926;2023-02-20T04:13:25;101240.88;;;8.60;83.97
43824;BME280;29470;53.550;9.926;2023-02-20T04:18:29;101219.38;;;8.69;85.39
43824;BME280;29470;53.550;9.926;2023-02-20T04:23:39;101214.47;;;8.62;85.47
43824;BME280;29470;53.550;9.926;2023-02-20T04:28:46;101203.50;;;8.86;83.52
43824;BME280;29470;53.550;9.926;2023-02-20T04:33:51;101199.44;;;8.37;85.87
43824;BME280;29470;53.550;9.926;2023-02-20T04:38:56;101196.63;;;8.96;83.95
43824;BME280;29470;53.550;9.926;2023-02-20T04:44:05;101182.84;;;8.54;86.43
43824;BME280;29470;53.550;9.926;2023-02-20T04:49:23;101165.47;;;8.83;84.25
43824;BME280;29470;53.550;9.926;2023-02-20T04:54:29;101174.25;;;8.64;85.83
43824;BME280;29470;53.550;9.926;2023-02-20T04:59:33;101173.78;;;8.39;87.65
43824;BME280;29470;53.550;9.926;2023-02-20T05:04:36;101172.53;;;8.75;85.70
43824;BME280;29470;53.550;9.926;2023-02-20T05:09:41;101184.63;;;9.07;83.73
43824;BME280;29470;53.550;9.926;2023-02-20T05:14:46;101185.31;;;8.74;84.68
43824;BME280;29470;53.550;9.926;2023-02-20T05:19:48;101176.66;;;8.52;86.21
43824;BME280;29470;53.550;9.926;2023-02-20T05:24:51;101150.63;;;8.60;85.70
43824;BME280;29470;53.550;9.926;2023-02-20T05:29:57;101138.59;;;8.91;85.99
43824;BME280;29470;53.550;9.926;2023-02-20T05:35:00;101118.56;;;9.42;81.61
43824;BME280;29470;53.550;9.926;2023-02-20T05:40:03;101116.31;;;9.24;83.58
43824;BME280;29470;53.550;9.926;2023-02-20T05:45:08;101094.31;;;9.07;84.52
43824;BME280;29470;53.550;9.926;2023-02-20T05:50:11;101083.53;;;9.23;82.52
43824;BME280;29470;53.550;9.926;2023-02-20T05:55:14;101069.09;;;8.93;84.14
43824;BME280;29470;53.550;9.926;2023-02-20T06:00:19;101070.03;;;9.16;83.53
43824;BME280;29470;53.550;9.926;2023-02-20T06:05:22;101069.94;;;9.04;84.98
43824;BME280;29470;53.550;9.926;2023-02-20T06:10:25;101049.97;;;9.01;84.94
43824;BME280;29470;53.550;9.926;2023-02-20T06:15:29;101045.69;;;9.02;85.97
43824;BME280;29470;53.550;9.926;2023-02-20T06:20:32;101035.78;;;8.96;84.91
43824;BME280;29470;53.550;9.926;2023-02-20T06:25:35;101045.91;;;9.15;85.93
43824;BME280;29470;53.550;9.926;2023-02-20T06:30:39;101050.47;;;9.07;85.48
43824;BME280;29470;53.550;9.926;2023-02-20T06:35:42;101048.56;;;9.27;87.23
43824;BME280;29470;53.550;9.926;2023-02-20T06:40:45;101047.75;;;9.06;86.39
43824;BME280;29470;53.550;9.926;2023-02-20T06:45:49;101059.78;;;9.72;83.43
43824;BME280;29470;53.550;9.926;2023-02-20T06:50:52;101058.06;;;9.38;84.04
43824;BME280;29470;53.550;9.926;2023-02-20T06:55:56;101058.25;;;9.74;83.36
43824;BME280;29470;53.550;9.926;2023-02-20T07:01:00;101053.72;;;9.49;84.63
43824;BME280;29470;53.550;9.926;2023-02-20T07:06:04;101051.13;;;9.94;81.73
43824;BME280;29470;53.550;9.926;2023-02-20T07:11:07;101042.97;;;10.45;79.83
43824;BME280;29470;53.550;9.926;2023-02-20T07:16:13;101055.22;;;10.48;79.82
43824;BME280;29470;53.550;9.926;2023-02-20T07:21:16;101051.03;;;10.38;81.70
43824;BME280;29470;53.550;9.926;2023-02-20T07:26:21;101057.63;;;10.23;79.92
43824;BME280;29470;53.550;9.926;2023-02-20T07:31:25;101055.91;;;10.23;82.46
43824;BME280;29470;53.550;9.926;2023-02-20T07:36:28;101053.22;;;10.22;82.41
43824;BME280;29470;53.550;9.926;2023-02-20T07:41:31;101047.69;;;10.17;84.63
43824;BME280;29470;53.550;9.926;2023-02-20T07:46:39;101036.94;;;9.88;86.76
43824;BME280;29470;53.550;9.926;2023-02-20T07:51:44;101039.78;;;10.03;87.02
43824;BME280;29470;53.550;9.926;2023-02-20T07:56:46;101026.69;;;10.24;86.21
43824;BME280;29470;53.550;9.926;2023-02-20T08:01:51;101000.00;;;10.01;85.33
43824;BME280;29470;53.550;9.926;2023-02-20T08:06:53;101010.16;;;10.10;84.93
43824;BME280;29470;53.550;9.926;2023-02-20T08:11:56;100992.09;;;9.76;88.91
43824;BME280;29470;53.550;9.926;2023-02-20T08:17:00;100984.81;;;10.52;85.06
43824;BME280;29470;53.550;9.926;2023-02-20T08:22:03;100983.94;;;9.94;88.32
43824;BME280;29470;53.550;9.926;2023-02-20T08:27:06;100989.25;;;10.07;89.29
43824;BME280;29470;53.550;9.926;2023-02-20T08:32:10;100992.22;;;10.71;86.35
43824;BME280;29470;53.550;9.926;2023-02-20T08:37:15;100973.31;;;10.37;88.21
43824;BME280;29470;53.550;9.926;2023-02-20T08:42:19;100971.28;;;10.32;89.36
43824;BME280;29470;53.550;9.926;2023-02-20T08:47:23;100964.66;;;10.84;86.75
43824;BME280;29470;53.550;9.926;2023-02-20T08:52:26;100957.22;;;10.05;90.81
43824;BME280;29470;53.550;9.926;2023-02-20T08:57:28;100960.19;;;10.69;89.25
43824;BME280;29470;53.550;9.926;2023-02-20T09:02:33;100938.56;;;10.93;89.17
43824;BME280;29470;53.550;9.926;2023-02-20T09:07:35;100936.50;;;11.00;90.13
43824;BME280;29470;53.550;9.926;2023-02-20T09:12:38;100934.38;;;10.95;90.78
43824;BME280;29470;53.550;9.926;2023-02-20T09:17:44;100929.28;;;11.08;89.30
43824;BME280;29470;53.550;9.926;2023-02-20T09:22:50;100922.16;;;11.43;89.72
43824;BME280;29470;53.550;9.926;2023-02-20T09:27:52;100920.56;;;10.82;94.01
43824;BME280;29470;53.550;9.926;2023-02-20T09:32:57;100923.09;;;11.06;93.78
43824;BME280;29470;53.550;9.926;2023-02-20T09:37:59;100918.44;;;11.14;93.44
43824;BME280;29470;53.550;9.926;2023-02-20T09:43:13;100906.94;;;10.97;95.20
43824;BME280;29470;53.550;9.926;2023-02-20T09:48:31;100897.53;;;11.11;96.13
43824;BME280;29470;53.550;9.926;2023-02-20T09:53:46;100903.25;;;11.18;92.35
43824;BME280;29470;53.550;9.926;2023-02-20T09:58:55;100896.63;;;11.35;92.61
43824;BME280;29470;53.550;9.926;2023-02-20T10:04:03;100912.53;;;11.28;93.07
43824;BME280;29470;53.550;9.926;2023-02-20T10:09:12;100898.19;;;11.98;89.00
43824;BME280;29470;53.550;9.926;2023-02-20T10:14:29;100888.97;;;11.37;93.42
43824;BME280;29470;53.550;9.926;2023-02-20T10:19:48;100897.50;;;11.61;91.12
43824;BME280;29470;53.550;9.926;2023-02-20T10:25:03;100889.41;;;11.57;92.19
43824;BME280;29470;53.550;9.926;2023-02-20T10:30:10;100890.94;;;11.67;92.52
43824;BME280;29470;53.550;9.926;2023-02-20T10:35:17;100894.81;;;11.60;92.33
43824;BME280;29470;53.550;9.926;2023-02-20T10:40:27;100871.69;;;12.15;89.38
43824;BME280;29470;53.550;9.926;2023-02-20T10:45:43;100874.31;;;11.90;89.60
43824;BME280;29470;53.550;9.926;2023-02-20T10:50:53;100870.91;;;11.25;93.43
43824;BME280;29470;53.550;9.926;2023-02-20T10:56:07;100861.06;;;11.72;91.96
43824;BME280;29470;53.550;9.926;2023-02-20T11:01:15;100879.25;;;11.60;93.32
43824;BME280;29470;53.550;9.926;2023-02-20T11:06:28;100887.25;;;11.63;92.40
43824;BME280;29470;53.550;9.926;2023-02-20T11:11:34;100882.81;;;11.35;93.82
43824;BME280;29470;53.550;9.926;2023-02-20T11:16:42;100865.84;;;11.79;92.33
43824;BME280;29470;53.550;9.926;2023-02-20T11:21:47;100878.41;;;11.73;90.38
43824;BME280;29470;53.550;9.926;2023-02-20T11:26:55;100883.41;;;11.83;90.11
43824;BME280;29470;53.550;9.926;2023-02-20T11:32:16;100881.94;;;12.00;90.42
43824;BME280;29470;53.550;9.926;2023-02-20T11:37:21;100868.00;;;12.12;88.87
43824;BME280;29470;53.550;9.926;2023-02-20T11:42:31;100859.41;;;12.13;87.17
43824;BME280;29470;53.550;9.926;2023-02-20T11:47:35;100854.78;;;12.62;84.63
43824;BME280;29470;53.550;9.926;2023-02-20T11:52:54;100853.63;;;12.30;83.69
43824;BME280;29470;53.550;9.926;2023-02-20T11:57:57;100832.66;;;12.41;82.96
43824;BME280;29470;53.550;9.926;2023-02-20T12:03:09;100836.75;;;13.07;80.81
43824;BME280;29470;53.550;9.926;2023-02-20T12:08:30;100813.25;;;12.20;83.63
43824;BME280;29470;53.550;9.926;2023-02-20T12:13:38;100825.59;;;12.95;80.87
43824;BME280;29470;53.550;9.926;2023-02-20T12:18:47;100807.38;;;12.10;82.97
43824;BME280;29470;53.550;9.926;2023-02-20T12:24:05;100799.91;;;12.56;81.33
43824;BME280;29470;53.550;9.926;2023-02-20T12:29:21;100805.25;;;12.88;80.44
43824;BME280;29470;53.550;9.926;2023-02-20T12:34:45;100795.03;;;12.47;80.64
43824;BME280;29470;53.550;9.926;2023-02-20T12:40:01;100797.97;;;12.95;78.35
43824;BME280;29470;53.550;9.926;2023-02-20T12:45:26;100787.31;;;12.34;81.43
43824;BME280;29470;53.550;9.926;2023-02-20T12:50:41;100800.97;;;12.60;79.87
43824;BME280;29470;53.550;9.926;2023-02-20T12:56:02;100791.50;;;12.32;81.68
43824;BME280;29470;53.550;9.926;2023-02-20T13:01:10;100796.31;;;12.12;83.82
43824;BME280;29470;53.550;9.926;2023-02-20T13:06:20;100801.47;;;12.67;80.45
43824;BME280;29470;53.550;9.926;2023-02-20T13:11:32;100797.47;;;12.31;81.79
43824;BME280;29470;53.550;9.926;2023-02-20T13:16:39;100803.28;;;12.27;81.47
43824;BME280;29470;53.550;9.926;2023-02-20T13:21:43;100790.75;;;12.48;81.47
43824;BME280;29470;53.550;9.926;2023-02-20T13:26:48;100800.69;;;13.27;76.68
43824;BME280;29470;53.550;9.926;2023-02-20T13:31:54;100795.03;;;12.47;82.55
43824;BME280;29470;53.550;9.926;2023-02-20T13:36:57;100805.88;;;12.55;81.52
43824;BME280;29470;53.550;9.926;2023-02-20T13:42:03;100794.06;;;13.32;79.57
43824;BME280;29470;53.550;9.926;2023-02-20T13:47:28;100796.66;;;12.74;81.43
43824;BME280;29470;53.550;9.926;2023-02-20T13:52:37;100799.84;;;12.70;81.62
43824;BME280;29470;53.550;9.926;2023-02-20T13:57:48;100788.69;;;12.71;80.82
43824;BME280;29470;53.550;9.926;2023-02-20T14:02:52;100782.72;;;12.30;83.50
43824;BME280;29470;53.550;9.926;2023-02-20T14:07:56;100775.28;;;12.93;81.49
43824;BME280;29470;53.550;9.926;2023-02-20T14:13:02;100776.03;;;12.62;83.96
43824;BME280;29470;53.550;9.926;2023-02-20T14:18:13;100776.66;;;12.44;84.10
43824;BME280;29470;53.550;9.926;2023-02-20T14:23:21;100768.50;;;12.95;81.96
43824;BME280;29470;53.550;9.926;2023-02-20T14:28:28;100774.75;;;12.84;82.90
43824;BME280;29470;53.550;9.926;2023-02-20T14:33:32;100775.41;;;12.66;82.83
43824;BME280;29470;53.550;9.926;2023-02-20T14:38:46;100774.59;;;13.10;81.28
43824;BME280;29470;53.550;9.926;2023-02-20T14:43:58;100780.13;;;12.30;85.97
43824;BME280;29470;53.550;9.926;2023-02-20T14:49:06;100782.41;;;12.25;85.40
43824;BME280;29470;53.550;9.926;2023-02-20T14:54:18;100782.06;;;12.47;85.63
43824;BME280;29470;53.550;9.926;2023-02-20T14:59:27;100779.69;;;12.37;84.57
43824;BME280;29470;53.550;9.926;2023-02-20T15:04:31;100773.38;;;12.47;85.47
43824;BME280;29470;53.550;9.926;2023-02-20T15:09:36;100776.16;;;12.50;83.86
43824;BME280;29470;53.550;9.926;2023-02-20T15:14:42;100772.75;;;13.08;82.83
43824;BME280;29470;53.550;9.926;2023-02-20T15:19:45;100786.59;;;12.65;84.00
43824;BME280;29470;53.550;9.926;2023-02-20T15:24:48;100785.75;;;12.51;87.78
43824;BME280;29470;53.550;9.926;2023-02-20T15:35:24;100790.25;;;12.40;93.05
43824;BME280;29470;53.550;9.926;2023-02-20T15:40:29;100787.00;;;11.75;97.57
43824;BME280;29470;53.550;9.926;2023-02-20T15:45:32;100799.13;;;12.02;99.91
43824;BME280;29470;53.550;9.926;2023-02-20T15:50:39;100797.47;;;11.63;100.00
43824;BME280;29470;53.550;9.926;2023-02-20T15:55:43;100788.00;;;11.64;100.00
43824;BME280;29470;53.550;9.926;2023-02-20T16:00:46;100784.53;;;11.90;100.00
43824;BME280;29470;53.550;9.926;2023-02-20T16:05:53;100790.66;;;11.39;100.00
43824;BME280;29470;53.550;9.926;2023-02-20T16:10:56;100773.47;;;12.06;100.00
43824;BME280;29470;53.550;9.926;2023-02-20T16:16:05;100783.94;;;11.94;100.00
43824;BME280;29470;53.550;9.926;2023-02-20T16:21:26;100780.25;;;12.04;100.00
43824;BME280;29470;53.550;9.926;2023-02-20T16:26:31;100786.81;;;11.99;100.00
43824;BME280;29470;53.550;9.926;2023-02-20T16:32:12;100786.72;;;11.71;100.00
43824;BME280;29470;53.550;9.926;2023-02-20T16:37:18;100782.81;;;12.31;100.00
43824;BME280;29470;53.550;9.926;2023-02-20T16:42:27;100781.16;;;11.78;100.00
43824;BME280;29470;53.550;9.926;2023-02-20T16:47:31;100782.44;;;12.12;100.00
43824;BME280;29470;53.550;9.926;2023-02-20T16:52:36;100788.38;;;12.37;100.00
43824;BME280;29470;53.550;9.926;2023-02-20T16:57:39;100784.59;;;12.32;100.00
43824;BME280;29470;53.550;9.926;2023-02-20T17:02:42;100802.78;;;12.19;100.00
43824;BME280;29470;53.550;9.926;2023-02-20T17:07:47;100800.66;;;11.46;100.00
43824;BME280;29470;53.550;9.926;2023-02-20T17:12:50;100807.13;;;11.79;100.00
43824;BME280;29470;53.550;9.926;2023-02-20T17:17:53;100806.66;;;11.72;100.00
43824;BME280;29470;53.550;9.926;2023-02-20T17:23:01;100818.41;;;11.93;100.00
43824;BME280;29470;53.550;9.926;2023-02-20T17:28:06;100821.47;;;11.61;100.00
43824;BME280;29470;53.550;9.926;2023-02-20T17:33:09;100821.06;;;11.55;100.00
43824;BME280;29470;53.550;9.926;2023-02-20T17:38:13;100846.47;;;11.47;100.00
43824;BME280;29470;53.550;9.926;2023-02-20T17:43:16;100831.78;;;11.86;100.00
43824;BME280;29470;53.550;9.926;2023-02-20T17:48:19;100831.84;;;11.61;100.00
43824;BME280;29470;53.550;9.926;2023-02-20T17:53:24;100831.34;;;11.53;100.00
43824;BME280;29470;53.550;9.926;2023-02-20T17:58:28;100832.03;;;11.64;100.00
43824;BME280;29470;53.550;9.926;2023-02-20T18:03:31;100827.38;;;11.72;100.00
43824;BME280;29470;53.550;9.926;2023-02-20T18:08:35;100827.53;;;11.48;100.00
43824;BME280;29470;53.550;9.926;2023-02-20T18:13:38;100826.53;;;11.07;100.00
43824;BME280;29470;53.550;9.926;2023-02-20T18:18:41;100833.63;;;11.62;100.00
43824;BME280;29470;53.550;9.926;2023-02-20T18:23:45;100830.56;;;11.68;100.00
43824;BME280;29470;53.550;9.926;2023-02-20T18:28:49;100836.63;;;11.82;100.00
43824;BME280;29470;53.550;9.926;2023-02-20T18:33:52;100842.88;;;11.45;100.00
43824;BME280;29470;53.550;9.926;2023-02-20T18:38:56;100835.75;;;11.68;100.00
43824;BME280;29470;53.550;9.926;2023-02-20T18:44:00;100827.53;;;11.48;100.00
43824;BME280;29470;53.550;9.926;2023-02-20T18:49:05;100836.75;;;11.70;100.00
43824;BME280;29470;53.550;9.926;2023-02-20T18:54:14;100840.47;;;11.34;100.00
43824;BME280;29470;53.550;9.926;2023-02-20T18:59:19;100834.09;;;12.08;100.00
43824;BME280;29470;53.550;9.926;2023-02-20T19:04:24;100828.78;;;11.93;100.00
43824;BME280;29470;53.550;9.926;2023-02-20T19:09:28;100833.53;;;11.60;100.00
43824;BME280;29470;53.550;9.926;2023-02-20T19:14:34;100825.31;;;12.06;100.00
43824;BME280;29470;53.550;9.926;2023-02-20T19:19:38;100835.03;;;11.18;100.00
43824;BME280;29470;53.550;9.926;2023-02-20T19:24:47;100827.97;;;11.81;100.00
43824;BME280;29470;53.550;9.926;2023-02-20T19:29:53;100827.88;;;11.93;100.00
43824;BME280;29470;53.550;9.926;2023-02-20T19:34:56;100836.34;;;11.77;100.00
43824;BME280;29470;53.550;9.926;2023-02-20T19:40:00;100831.56;;;11.83;100.00
43824;BME280;29470;53.550;9.926;2023-02-20T19:45:04;100835.03;;;11.70;100.00
43824;BME280;29470;53.550;9.926;2023-02-20T19:50:08;100830.88;;;12.26;100.00
43824;BME280;29470;53.550;9.926;2023-02-20T19:55:16;100830.19;;;12.29;100.00
43824;BME280;29470;53.550;9.926;2023-02-20T20:00:20;100824.88;;;11.73;100.00
43824;BME280;29470;53.550;9.926;2023-02-20T20:05:24;100825.78;;;11.87;100.00
43824;BME280;29470;53.550;9.926;2023-02-20T20:10:30;100827.53;;;12.56;100.00
43824;BME280;29470;53.550;9.926;2023-02-20T20:15:33;100822.63;;;12.32;100.00
43824;BME280;29470;53.550;9.926;2023-02-20T20:20:37;100827.19;;;12.36;100.00
43824;BME280;29470;53.550;9.926;2023-02-20T20:25:45;100825.63;;;12.11;100.00
43824;BME280;29470;53.550;9.926;2023-02-20T20:30:48;100828.19;;;11.84;100.00
43824;BME280;29470;53.550;9.926;2023-02-20T20:36:13;100830.47;;;11.79;100.00
43824;BME280;29470;53.550;9.926;2023-02-20T20:41:25;100829.63;;;12.19;100.00
43824;BME280;29470;53.550;9.926;2023-02-20T20:46:48;100832.28;;;12.34;100.00
43824;BME280;29470;53.550;9.926;2023-02-20T20:51:52;100824.44;;;12.19;100.00
43824;BME280;29470;53.550;9.926;2023-02-20T20:56:56;100830.31;;;12.03;100.00
43824;BME280;29470;53.550;9.926;2023-02-20T21:01:59;100832.84;;;12.44;100.00
43824;BME280;29470;53.550;9.926;2023-02-20T21:07:02;100831.63;;;12.52;100.00
43824;BME280;29470;53.550;9.926;2023-02-20T21:12:07;100840.31;;;12.52;100.00
43824;BME280;29470;53.550;9.926;2023-02-20T21:17:11;100835.69;;;12.20;100.00
43824;BME280;29470;53.550;9.926;2023-02-20T21:22:14;100831.84;;;12.55;100.00
43824;BME280;29470;53.550;9.926;2023-02-20T21:27:19;100824.81;;;12.26;100.00
43824;BME280;29470;53.550;9.926;2023-02-20T21:32:21;100823.50;;;12.32;100.00
43824;BME280;29470;53.550;9.926;2023-02-20T21:37:25;100818.63;;;12.23;100.00
43824;BME280;29470;53.550;9.926;2023-02-20T21:42:29;100819.13;;;12.04;100.00
43824;BME280;29470;53.550;9.926;2023-02-20T21:47:50;100813.44;;;12.23;100.00
43824;BME280;29470;53.550;9.926;2023-02-20T21:52:52;100818.41;;;11.80;100.00
43824;BME280;29470;53.550;9.926;2023-02-20T21:57:57;100806.06;;;11.89;100.00
43824;BME280;29470;53.550;9.926;2023-02-20T22:03:04;100821.53;;;12.01;100.00
43824;BME280;29470;53.550;9.926;2023-02-20T22:08:06;100821.22;;;12.23;100.00
43824;BME280;29470;53.550;9.926;2023-02-20T22:13:28;100818.91;;;12.42;100.00
43824;BME280;29470;53.550;9.926;2023-02-20T22:18:48;100823.41;;;12.73;100.00
43824;BME280;29470;53.550;9.926;2023-02-20T22:24:08;100821.25;;;12.10;100.00
43824;BME280;29470;53.550;9.926;2023-02-20T22:29:40;100823.56;;;12.47;100.00
43824;BME280;29470;53.550;9.926;2023-02-20T22:35:00;100813.47;;;12.52;100.00
43824;BME280;29470;53.550;9.926;2023-02-20T22:40:21;100825.94;;;12.44;100.00
43824;BME280;29470;53.550;9.926;2023-02-20T22:45:42;100825.25;;;12.60;100.00
43824;BME280;29470;53.550;9.926;2023-02-20T22:51:03;100826.28;;;11.82;100.00
43824;BME280;29470;53.550;9.926;2023-02-20T22:56:23;100829.72;;;12.63;100.00
43824;BME280;29470;53.550;9.926;2023-02-20T23:01:45;100845.81;;;12.57;100.00
43824;BME280;29470;53.550;9.926;2023-02-20T23:07:05;100838.47;;;12.10;100.00
43824;BME280;29470;53.550;9.926;2023-02-20T23:12:26;100844.81;;;11.88;100.00
43824;BME280;29470;53.550;9.926;2023-02-20T23:17:47;100844.53;;;11.83;100.00
43824;BME280;29470;53.550;9.926;2023-02-20T23:23:08;100838.81;;;12.56;100.00
43824;BME280;29470;53.550;9.926;2023-02-20T23:28:29;100841.31;;;12.41;100.00
43824;BME280;29470;53.550;9.926;2023-02-20T23:33:50;100842.25;;;12.01;100.00
43824;BME280;29470;53.550;9.926;2023-02-20T23:39:10;100850.22;;;12.31;100.00
43824;BME280;29470;53.550;9.926;2023-02-20T23:44:31;100852.56;;;12.00;100.00
43824;BME280;29470;53.550;9.926;2023-02-20T23:49:53;100864.03;;;11.64;100.00
43824;BME280;29470;53.550;9.926;2023-02-20T23:55:13;100872.50;;;12.28;100.00
